createdAt,value
2022-09-10T00:01:26.836Z,0.40
2022-09-10T00:03:54.852Z,0.40
2022-09-10T00:06:27.587Z,0.30
2022-09-10T00:09:01.202Z,0.30
2022-09-10T00:11:33.614Z,0.40
2022-09-10T00:14:03.758Z,0.32
2022-09-10T00:16:32.235Z,0.38
2022-09-10T00:19:01.412Z,0.32
2022-09-10T00:21:30.124Z,0.30
2022-09-10T00:23:58.345Z,0.40
2022-09-10T00:26:29.798Z,0.30
2022-09-10T00:29:01.589Z,0.40
2022-09-10T00:31:30.928Z,0.30
2022-09-10T00:34:00.151Z,0.28
2022-09-10T00:36:33.296Z,0.28
2022-09-10T00:39:04.980Z,0.30
2022-09-10T00:41:34.276Z,0.40
2022-09-10T00:44:06.503Z,0.43
2022-09-10T00:46:45.038Z,0.30
2022-09-10T00:49:41.349Z,0.30
2022-09-10T00:52:08.654Z,0.20
2022-09-10T00:54:37.708Z,0.30
2022-09-10T00:57:12.414Z,0.20
2022-09-10T00:59:47.319Z,0.30
2022-09-10T01:02:15.093Z,0.30
2022-09-10T01:04:43.320Z,0.32
2022-09-10T01:07:12.430Z,0.30
2022-09-10T01:09:40.625Z,0.30
2022-09-10T01:12:36.031Z,0.40
2022-09-10T01:15:47.652Z,0.20
2022-09-10T01:18:52.697Z,0.20
2022-09-10T01:22:12.175Z,0.43
2022-09-10T01:24:54.525Z,0.20
2022-09-10T01:27:40.259Z,0.35
2022-09-10T01:30:14.832Z,0.10
2022-09-10T01:33:07.334Z,0.20
2022-09-10T01:35:53.875Z,0.25
2022-09-10T01:38:32.247Z,0.20
2022-09-10T01:41:00.001Z,0.20
2022-09-10T01:43:27.681Z,0.22
2022-09-10T01:46:21.971Z,0.20
2022-09-10T01:49:23.447Z,0.25
2022-09-10T01:52:08.844Z,0.30
2022-09-10T01:55:14.785Z,0.28
2022-09-10T01:58:01.139Z,0.20
2022-09-10T02:00:28.869Z,0.20
2022-09-10T02:03:06.280Z,0.10
2022-09-10T02:05:37.008Z,0.20
2022-09-10T02:08:22.371Z,0.30
2022-09-10T02:11:06.317Z,0.30
2022-09-10T02:13:35.727Z,0.20
2022-09-10T02:16:14.213Z,0.20
2022-09-10T02:18:42.770Z,0.20
2022-09-10T02:21:11.816Z,0.20
2022-09-10T02:23:49.137Z,0.30
2022-09-10T02:26:16.602Z,0.40
2022-09-10T02:28:44.531Z,0.20
2022-09-10T02:31:11.932Z,0.20
2022-09-10T02:33:39.603Z,0.10
2022-09-10T02:36:07.154Z,0.22
2022-09-10T02:38:34.501Z,0.28
2022-09-10T02:41:01.769Z,0.20
2022-09-10T02:43:29.980Z,0.40
2022-09-10T02:45:59.080Z,0.20
2022-09-10T02:48:27.917Z,0.20
2022-09-10T02:50:55.214Z,0.30
2022-09-10T02:53:22.318Z,0.13
2022-09-10T02:55:49.581Z,0.22
2022-09-10T02:58:17.242Z,0.17
2022-09-10T03:00:45.743Z,0.30
2022-09-10T03:03:13.144Z,0.10
2022-09-10T03:05:41.746Z,0.20
2022-09-10T03:08:09.933Z,0.20
2022-09-10T03:10:39.541Z,0.20
2022-09-10T03:13:06.959Z,0.13
2022-09-10T03:15:34.265Z,0.40
2022-09-10T03:18:01.372Z,0.13
2022-09-10T03:20:28.512Z,0.20
2022-09-10T03:22:55.541Z,0.20
2022-09-10T03:25:22.880Z,0.13
2022-09-10T03:27:50.117Z,0.20
2022-09-10T03:30:17.439Z,0.30
2022-09-10T03:32:44.541Z,0.22
2022-09-10T03:35:13.067Z,0.40
2022-09-10T03:37:40.786Z,0.20
2022-09-10T03:40:09.313Z,0.20
2022-09-10T03:42:36.863Z,0.20
2022-09-10T03:45:04.716Z,0.22
2022-09-10T03:47:31.880Z,0.20
2022-09-10T03:50:00.028Z,0.10
2022-09-10T03:52:27.272Z,0.10
2022-09-10T03:54:54.391Z,0.20
2022-09-10T03:57:22.268Z,0.20
2022-09-10T03:59:49.976Z,0.38
2022-09-10T04:02:17.537Z,0.13
2022-09-10T04:04:44.731Z,0.20
2022-09-10T04:07:11.947Z,0.20
2022-09-10T04:09:38.990Z,0.20
2022-09-10T04:12:06.597Z,0.15
2022-09-10T04:14:35.276Z,0.20
2022-09-10T04:17:02.939Z,0.20
2022-09-10T04:19:30.035Z,0.10
2022-09-10T04:21:57.986Z,0.10
2022-09-10T04:24:25.299Z,0.20
2022-09-10T04:26:52.346Z,0.20
2022-09-10T04:29:19.809Z,0.60
2022-09-10T04:31:47.104Z,0.35
2022-09-10T04:34:15.705Z,0.60
2022-09-10T04:36:42.888Z,0.70
2022-09-10T04:39:10.276Z,0.70
2022-09-10T04:41:37.321Z,0.95
2022-09-10T04:44:04.399Z,1.10
2022-09-10T04:46:31.451Z,0.90
2022-09-10T04:48:59.120Z,0.47
2022-09-10T04:51:26.340Z,0.40
2022-09-10T04:53:54.187Z,0.40
2022-09-10T04:56:21.517Z,0.20
2022-09-10T04:58:49.735Z,0.10
2022-09-10T05:01:16.831Z,0.22
2022-09-10T05:03:44.105Z,0.17
2022-09-10T05:06:11.346Z,0.10
2022-09-10T05:08:38.657Z,0.10
2022-09-10T05:11:05.986Z,0.20
2022-09-10T05:13:33.189Z,0.22
2022-09-10T05:16:00.454Z,0.30
2022-09-10T05:18:28.032Z,0.30
2022-09-10T05:20:55.250Z,0.28
2022-09-10T05:23:22.385Z,0.20
2022-09-10T05:25:49.669Z,0.20
2022-09-10T05:28:16.985Z,0.10
2022-09-10T05:30:49.483Z,0.20
2022-09-10T05:33:18.689Z,0.30
2022-09-10T05:35:48.676Z,0.30
2022-09-10T05:38:15.876Z,0.20
2022-09-10T05:40:43.739Z,0.10
2022-09-10T05:43:12.090Z,0.30
2022-09-10T05:45:39.147Z,0.30
2022-09-10T05:48:06.448Z,0.10
2022-09-10T05:50:33.554Z,0.20
2022-09-10T05:53:01.280Z,0.30
2022-09-10T05:55:30.485Z,0.30
2022-09-10T05:57:58.591Z,0.22
2022-09-10T06:00:26.323Z,0.20
2022-09-10T06:02:53.481Z,0.20
2022-09-10T06:05:23.901Z,0.28
2022-09-10T06:07:51.153Z,0.40
2022-09-10T06:10:19.585Z,0.30
2022-09-10T06:12:48.406Z,0.10
2022-09-10T06:15:16.160Z,0.22
2022-09-10T06:17:43.462Z,0.60
2022-09-10T06:20:12.858Z,0.47
2022-09-10T06:22:40.661Z,0.43
2022-09-10T06:25:08.383Z,0.25
2022-09-10T06:27:35.503Z,0.30
2022-09-10T06:30:02.558Z,0.30
2022-09-10T06:32:29.786Z,0.15
2022-09-10T06:34:56.818Z,0.25
2022-09-10T06:37:24.420Z,0.20
2022-09-10T06:39:51.639Z,0.30
2022-09-10T06:42:19.175Z,0.40
2022-09-10T06:44:46.346Z,0.50
2022-09-10T06:47:55.743Z,0.30
2022-09-10T06:50:01.605Z,0.30
2022-09-10T06:52:29.588Z,0.20
2022-09-10T06:54:56.830Z,0.20
2022-09-10T06:57:27.306Z,0.20
2022-09-10T06:59:54.560Z,0.10
2022-09-10T07:02:21.686Z,0.30
2022-09-10T07:04:48.860Z,0.20
2022-09-10T07:07:15.924Z,0.10
2022-09-10T07:09:43.348Z,0.25
2022-09-10T07:12:10.326Z,0.20
2022-09-10T07:14:37.514Z,0.15
2022-09-10T07:17:04.681Z,0.10
2022-09-10T07:19:33.350Z,0.30
2022-09-10T07:22:01.283Z,0.20
2022-09-10T07:24:28.682Z,0.20
2022-09-10T07:26:57.033Z,0.30
2022-09-10T07:29:24.223Z,0.20
2022-09-10T07:31:51.321Z,0.30
2022-09-10T07:34:18.437Z,0.22
2022-09-10T07:36:45.466Z,0.20
2022-09-10T07:39:12.733Z,0.30
2022-09-10T07:41:39.738Z,0.43
2022-09-10T07:44:07.103Z,0.32
2022-09-10T07:46:34.248Z,0.30
2022-09-10T07:49:01.633Z,0.32
2022-09-10T07:51:30.667Z,0.32
2022-09-10T07:53:59.459Z,0.30
2022-09-10T07:56:26.888Z,0.20
2022-09-10T07:58:57.029Z,0.30
2022-09-10T08:01:24.488Z,0.35
2022-09-10T08:03:51.697Z,0.30
2022-09-10T08:06:19.507Z,0.20
2022-09-10T08:08:46.758Z,0.30
2022-09-10T08:11:19.067Z,0.38
2022-09-10T08:13:50.093Z,0.30
2022-09-10T08:16:25.396Z,0.30
2022-09-10T08:18:56.977Z,0.30
2022-09-10T08:21:30.045Z,0.40
2022-09-10T08:23:57.567Z,0.30
2022-09-10T08:26:26.785Z,0.30
2022-09-10T08:28:56.618Z,0.25
2022-09-10T08:31:25.184Z,0.20
2022-09-10T08:33:55.201Z,0.10
2022-09-10T08:36:23.402Z,0.20
2022-09-10T08:38:51.842Z,0.20
2022-09-10T08:41:55.072Z,0.20
2022-09-10T08:44:51.176Z,0.20
2022-09-10T08:47:53.689Z,0.10
2022-09-10T08:50:36.240Z,0.15
2022-09-10T08:53:26.211Z,0.10
2022-09-10T08:55:58.761Z,0.10
2022-09-10T08:58:44.565Z,0.17
2022-09-10T09:01:40.732Z,0.10
2022-09-10T09:04:18.335Z,0.30
2022-09-10T09:06:57.938Z,0.10
2022-09-10T09:09:25.579Z,0.20
2022-09-10T09:12:27.784Z,0.20
2022-09-10T09:15:18.442Z,0.10
2022-09-10T09:18:04.261Z,0.30
2022-09-10T09:20:39.471Z,0.35
2022-09-10T09:23:27.444Z,0.20
2022-09-10T09:26:03.557Z,0.30
2022-09-10T09:28:43.603Z,0.30
2022-09-10T09:31:18.202Z,0.20
2022-09-10T09:33:47.031Z,0.30
2022-09-10T09:36:21.629Z,0.30
2022-09-10T09:38:50.973Z,0.30
2022-09-10T09:41:28.566Z,0.30
2022-09-10T09:44:03.618Z,0.30
2022-09-10T09:46:30.649Z,0.32
2022-09-10T09:49:02.392Z,0.30
2022-09-10T09:51:35.672Z,0.20
2022-09-10T09:54:56.690Z,0.30
2022-09-10T09:57:17.180Z,0.20
2022-09-10T09:59:44.355Z,0.30
2022-09-10T10:02:19.394Z,0.82
2022-09-10T10:05:23.784Z,0.30
2022-09-10T10:07:51.024Z,0.30
2022-09-10T10:10:27.166Z,0.20
2022-09-10T10:12:55.659Z,0.10
2022-09-10T10:15:36.645Z,0.30
2022-09-10T10:18:31.851Z,0.20
2022-09-10T10:21:24.913Z,0.20
2022-09-10T10:23:52.129Z,0.10
2022-09-10T10:26:25.124Z,0.10
2022-09-10T10:29:17.058Z,0.10
2022-09-10T10:31:47.338Z,0.20
2022-09-10T10:34:15.244Z,0.10
2022-09-10T10:37:22.166Z,0.22
2022-09-10T10:40:18.619Z,0.03
2022-09-10T10:43:06.990Z,0.20
2022-09-10T10:45:56.625Z,0.20
2022-09-10T10:48:49.306Z,0.10
2022-09-10T10:51:32.219Z,0.20
2022-09-10T10:54:43.316Z,0.30
2022-09-10T10:57:38.322Z,0.20
2022-09-10T11:00:19.020Z,0.20
2022-09-10T11:03:23.205Z,0.30
2022-09-10T11:05:59.922Z,0.22
2022-09-10T11:08:47.875Z,0.15
2022-09-10T11:11:28.234Z,0.25
2022-09-10T11:14:17.423Z,0.17
2022-09-10T11:17:06.963Z,0.20
2022-09-10T11:20:27.786Z,0.10
2022-09-10T11:23:30.598Z,0.20
2022-09-10T11:26:32.292Z,0.10
2022-09-10T11:29:13.381Z,0.10
2022-09-10T11:31:46.439Z,0.10
2022-09-10T11:34:34.859Z,0.43
2022-09-10T11:37:35.640Z,0.35
2022-09-10T11:40:16.396Z,0.10
2022-09-10T11:42:52.391Z,0.10
2022-09-10T11:45:43.088Z,0.10
2022-09-10T11:48:30.562Z,0.20
2022-09-10T11:51:07.858Z,0.10
2022-09-10T11:53:37.296Z,0.30
2022-09-10T11:56:19.605Z,0.20
2022-09-10T11:59:42.613Z,0.20
2022-09-10T12:03:09.361Z,0.10
2022-09-10T12:06:10.820Z,0.30
2022-09-10T12:09:11.742Z,0.20
2022-09-10T12:11:58.913Z,0.30
2022-09-10T12:14:26.252Z,0.40
2022-09-10T12:16:59.937Z,0.30
2022-09-10T12:19:40.451Z,0.20
2022-09-10T12:22:29.867Z,0.20
2022-09-10T12:25:05.518Z,0.15
2022-09-10T12:27:50.951Z,0.10
2022-09-10T12:30:36.461Z,0.20
2022-09-10T12:33:24.877Z,0.20
2022-09-10T12:35:52.745Z,0.10
2022-09-10T12:38:44.735Z,0.10
2022-09-10T12:41:25.172Z,0.20
2022-09-10T12:44:01.342Z,0.10
2022-09-10T12:46:30.233Z,0.20
2022-09-10T12:48:57.881Z,0.10
2022-09-10T12:51:46.323Z,0.20
2022-09-10T12:54:53.523Z,0.20
2022-09-10T12:58:08.863Z,0.08
2022-09-10T13:00:54.378Z,0.10
2022-09-10T13:03:28.163Z,0.10
2022-09-10T13:06:00.257Z,0.10
2022-09-10T13:08:41.609Z,0.10
2022-09-10T13:11:25.662Z,0.13
2022-09-10T13:14:01.444Z,0.17
2022-09-10T13:16:28.489Z,0.10
2022-09-10T13:19:17.954Z,0.20
2022-09-10T13:21:44.927Z,0.30
2022-09-10T13:24:34.361Z,0.25
2022-09-10T13:27:20.544Z,0.43
2022-09-10T13:29:54.843Z,0.30
2022-09-10T13:32:44.746Z,0.20
2022-09-10T13:35:19.674Z,0.28
2022-09-10T13:38:21.518Z,0.28
2022-09-10T13:41:07.238Z,0.20
2022-09-10T13:43:40.527Z,0.20
2022-09-10T13:46:39.752Z,0.20
2022-09-10T13:49:35.940Z,0.20
2022-09-10T13:52:06.021Z,0.28
2022-09-10T13:54:40.048Z,0.20
2022-09-10T13:57:25.053Z,0.20
2022-09-10T14:00:09.087Z,0.10
2022-09-10T14:03:01.670Z,0.10
2022-09-10T14:06:05.207Z,0.10
2022-09-10T14:08:42.300Z,0.10
2022-09-10T14:11:12.406Z,0.10
2022-09-10T14:13:55.665Z,0.08
2022-09-10T14:16:35.076Z,0.10
2022-09-10T14:19:06.635Z,0.08
2022-09-10T14:21:34.392Z,0.10
2022-09-10T14:24:01.984Z,0.13
2022-09-10T14:26:33.759Z,0.10
2022-09-10T14:29:25.424Z,0.17
2022-09-10T14:31:54.481Z,0.20
2022-09-10T14:34:39.607Z,0.20
2022-09-10T14:37:45.379Z,0.10
2022-09-10T14:40:21.763Z,0.10
2022-09-10T14:42:50.707Z,0.10
2022-09-10T14:45:47.773Z,0.10
2022-09-10T14:49:01.505Z,0.10
2022-09-10T14:51:28.818Z,0.10
2022-09-10T14:53:58.536Z,0.00
2022-09-10T14:56:41.024Z,0.10
2022-09-10T14:59:31.722Z,0.40
2022-09-10T15:02:03.256Z,0.08
2022-09-10T15:04:30.765Z,0.10
2022-09-10T15:07:00.398Z,0.10
2022-09-10T15:09:29.380Z,0.10
2022-09-10T15:11:59.052Z,0.10
2022-09-10T15:14:27.007Z,0.10
2022-09-10T15:16:54.197Z,0.17
2022-09-10T15:19:22.877Z,0.20
2022-09-10T15:21:50.426Z,0.20
2022-09-10T15:24:20.961Z,0.17
2022-09-10T15:26:49.390Z,0.20
2022-09-10T15:29:18.067Z,0.10
2022-09-10T15:31:45.514Z,0.25
2022-09-10T15:34:13.045Z,0.40
2022-09-10T15:36:41.252Z,0.10
2022-09-10T15:39:12.658Z,0.13
2022-09-10T15:41:44.531Z,0.10
2022-09-10T15:46:45.561Z,0.20
2022-09-10T15:49:12.978Z,0.10
2022-09-10T15:51:41.460Z,0.20
2022-09-10T15:54:11.484Z,0.05
2022-09-10T15:56:39.741Z,0.20
2022-09-10T15:59:08.809Z,0.13
2022-09-10T16:01:38.470Z,0.38
2022-09-10T16:04:06.419Z,0.20
2022-09-10T16:06:37.913Z,0.20
2022-09-10T16:09:10.020Z,0.10
2022-09-10T16:11:39.999Z,0.20
2022-09-10T16:14:12.461Z,0.20
2022-09-10T16:16:40.991Z,0.13
2022-09-10T16:19:10.614Z,0.10
2022-09-10T16:21:38.680Z,0.22
2022-09-10T16:24:07.162Z,0.50
2022-09-10T16:26:38.088Z,0.28
2022-09-10T16:29:17.595Z,0.35
2022-09-10T16:31:48.445Z,0.15
2022-09-10T16:34:18.911Z,0.30
2022-09-10T16:36:51.451Z,0.10
2022-09-10T16:39:20.204Z,0.20
2022-09-10T16:41:49.205Z,0.00
2022-09-10T16:44:18.206Z,0.10
2022-09-10T16:46:46.656Z,0.35
2022-09-10T16:49:15.205Z,0.20
2022-09-10T16:51:43.897Z,0.30
2022-09-10T16:54:13.999Z,0.20
2022-09-10T16:56:44.251Z,0.40
2022-09-10T16:59:21.564Z,0.40
2022-09-10T17:01:50.407Z,0.50
2022-09-10T17:04:28.945Z,0.55
2022-09-10T17:06:57.940Z,0.35
2022-09-10T17:09:25.687Z,0.30
2022-09-10T17:11:53.291Z,0.22
2022-09-10T17:14:20.505Z,0.20
2022-09-10T17:16:48.817Z,0.20
2022-09-10T17:19:23.794Z,0.20
2022-09-10T17:21:55.217Z,0.20
2022-09-10T17:24:24.957Z,0.25
2022-09-10T17:26:54.177Z,0.30
2022-09-10T17:29:24.457Z,0.20
2022-09-10T17:31:52.522Z,0.35
2022-09-10T17:34:21.665Z,0.40
2022-09-10T17:36:49.464Z,0.20
2022-09-10T17:39:17.625Z,0.10
2022-09-10T17:41:45.248Z,0.30
2022-09-10T17:44:13.622Z,0.30
2022-09-10T17:46:42.818Z,0.60
2022-09-10T17:49:13.725Z,0.32
2022-09-10T17:51:41.573Z,0.30
2022-09-10T17:54:09.237Z,0.30
2022-09-10T17:56:38.609Z,0.50
2022-09-10T17:59:06.852Z,0.28
2022-09-10T18:01:39.001Z,0.28
2022-09-10T18:04:08.315Z,0.30
2022-09-10T18:06:36.743Z,0.10
2022-09-10T18:09:05.313Z,0.30
2022-09-10T18:11:40.263Z,0.28
2022-09-10T18:14:08.279Z,0.30
2022-09-10T18:16:36.637Z,0.30
2022-09-10T18:19:13.024Z,0.30
2022-09-10T18:21:41.028Z,0.50
2022-09-10T18:24:16.967Z,0.40
2022-09-10T18:26:48.713Z,0.40
2022-09-10T18:29:22.915Z,0.20
2022-09-10T18:31:53.604Z,0.20
2022-09-10T18:34:25.195Z,0.60
2022-09-10T18:36:58.476Z,0.45
2022-09-10T18:39:28.605Z,0.40
2022-09-10T18:41:57.333Z,0.47
2022-09-10T18:44:29.292Z,0.43
2022-09-10T18:49:25.235Z,0.73
2022-09-10T18:51:54.539Z,0.47
2022-09-10T18:54:24.344Z,0.30
2022-09-10T18:56:53.393Z,0.20
2022-09-10T18:59:23.436Z,0.20
2022-09-10T19:01:53.969Z,0.20
2022-09-10T19:04:25.787Z,0.30
2022-09-10T19:06:53.305Z,0.38
2022-09-10T19:09:30.340Z,0.20
2022-09-10T19:12:00.532Z,0.30
2022-09-10T19:14:34.559Z,0.70
2022-09-10T19:17:02.473Z,1.30
2022-09-10T19:19:36.293Z,1.10
2022-09-10T19:22:10.608Z,0.80
2022-09-10T19:24:53.898Z,0.70
2022-09-10T19:27:22.054Z,1.10
2022-09-10T19:29:49.944Z,1.27
2022-09-10T19:32:19.911Z,1.25
2022-09-10T19:34:50.936Z,1.40
2022-09-10T19:37:18.255Z,1.33
2022-09-10T19:39:45.483Z,1.10
2022-09-10T19:42:12.909Z,0.77
2022-09-10T19:44:40.007Z,0.70
2022-09-10T19:47:07.290Z,0.60
2022-09-10T19:49:34.477Z,0.52
2022-09-10T19:52:01.934Z,0.73
2022-09-10T19:54:29.914Z,0.73
2022-09-10T19:56:57.016Z,0.90
2022-09-10T19:59:24.310Z,0.70
2022-09-10T20:01:51.487Z,0.93
2022-09-10T20:04:18.983Z,0.52
2022-09-10T20:06:47.777Z,0.60
2022-09-10T20:09:14.981Z,0.40
2022-09-10T20:11:42.157Z,0.25
2022-09-10T20:14:13.632Z,0.30
2022-09-10T20:16:44.235Z,0.20
2022-09-10T20:19:14.546Z,0.32
2022-09-10T20:21:42.475Z,0.20
2022-09-10T20:24:10.724Z,0.20
2022-09-10T20:26:41.373Z,0.30
2022-09-10T20:29:13.772Z,0.10
2022-09-10T20:31:42.388Z,0.20
2022-09-10T20:34:16.830Z,0.20
2022-09-10T20:36:45.166Z,0.20
2022-09-10T20:39:15.137Z,0.20
2022-09-10T20:41:43.402Z,0.13
2022-09-10T20:44:13.724Z,0.10
2022-09-10T20:46:41.676Z,0.10
2022-09-10T20:49:11.380Z,0.30
2022-09-10T20:51:40.667Z,0.13
2022-09-10T20:54:12.551Z,0.15
2022-09-10T20:56:40.248Z,0.20
2022-09-10T20:59:07.518Z,0.25
2022-09-10T21:01:34.880Z,0.20
2022-09-10T21:04:03.086Z,0.15
2022-09-10T21:06:33.432Z,0.20
2022-09-10T21:09:02.579Z,0.10
2022-09-10T21:11:32.931Z,0.30
2022-09-10T21:14:03.379Z,0.28
2022-09-10T21:16:37.142Z,0.32
2022-09-10T21:19:09.995Z,0.40
2022-09-10T21:21:39.631Z,0.30
2022-09-10T21:24:14.571Z,0.32
2022-09-10T21:26:45.580Z,0.30
2022-09-10T21:29:21.210Z,0.30
2022-09-10T21:31:50.786Z,0.60
2022-09-10T21:34:19.327Z,0.20
2022-09-10T21:36:46.509Z,0.45
2022-09-10T21:39:16.831Z,0.30
2022-09-10T21:41:48.044Z,0.30
2022-09-10T21:44:19.871Z,0.20
2022-09-10T21:46:48.753Z,0.20
2022-09-10T21:49:17.422Z,0.30
2022-09-10T21:51:45.288Z,0.15
2022-09-10T21:54:21.071Z,0.20
2022-09-10T21:56:49.943Z,0.38
2022-09-10T21:59:17.660Z,0.47
2022-09-10T22:01:46.746Z,0.70
2022-09-10T22:04:19.989Z,0.77
2022-09-10T22:06:49.615Z,0.88
2022-09-10T22:09:17.629Z,0.60
2022-09-10T22:11:51.377Z,0.43
2022-09-10T22:14:22.503Z,0.73
2022-09-10T22:16:50.207Z,0.70
2022-09-10T22:19:24.196Z,0.80
2022-09-10T22:21:54.297Z,0.52
2022-09-10T22:24:22.343Z,0.50
2022-09-10T22:26:49.709Z,0.60
2022-09-10T22:29:19.384Z,0.40
2022-09-10T22:31:47.132Z,0.35
2022-09-10T22:34:17.641Z,0.40
2022-09-10T22:36:47.093Z,0.20
2022-09-10T22:39:22.802Z,0.20
2022-09-10T22:41:51.288Z,0.30
2022-09-10T22:44:20.192Z,0.40
2022-09-10T22:46:47.710Z,0.38
2022-09-10T22:49:18.091Z,0.20
2022-09-10T22:51:45.342Z,0.20
2022-09-10T22:54:12.723Z,0.20
2022-09-10T22:56:40.228Z,0.30
2022-09-10T22:59:12.251Z,0.28
2022-09-10T23:01:40.547Z,0.10
2022-09-10T23:04:09.489Z,0.20
2022-09-10T23:06:38.730Z,0.25
2022-09-10T23:09:17.477Z,0.20
2022-09-10T23:11:45.725Z,0.30
2022-09-10T23:14:20.028Z,0.30
2022-09-10T23:16:49.952Z,0.30
2022-09-10T23:19:22.956Z,0.20
2022-09-10T23:21:53.918Z,0.30
2022-09-10T23:24:26.909Z,0.30
2022-09-10T23:26:54.728Z,0.40
2022-09-10T23:29:24.156Z,0.20
2022-09-10T23:31:54.359Z,0.30
2022-09-10T23:34:22.472Z,0.10
2022-09-10T23:36:50.893Z,0.32
2022-09-10T23:39:21.101Z,0.35
2022-09-10T23:41:50.064Z,0.20
2022-09-10T23:44:17.831Z,0.45
2022-09-10T23:46:45.220Z,0.30
2022-09-10T23:49:13.236Z,0.35
2022-09-10T23:51:40.963Z,0.20
2022-09-10T23:54:10.044Z,0.30
2022-09-10T23:56:37.963Z,0.20
2022-09-10T23:59:05.421Z,0.20
